createdAt,value
2022-10-07T00:03:59.491Z,97382.09
2022-10-07T00:23:21.131Z,97386.56
2022-10-07T05:03:56.947Z,97295.50
2022-10-07T05:09:01.016Z,97299.25
2022-10-07T05:14:12.460Z,97340.00
2022-10-07T05:26:03.523Z,97380.81
2022-10-07T05:42:51.350Z,97359.81
2022-10-07T05:53:58.489Z,97393.91
2022-10-07T05:59:08.932Z,97357.09
2022-10-07T06:04:17.099Z,97385.09
2022-10-07T06:09:40.949Z,97348.66
2022-10-07T06:14:50.465Z,97392.28
2022-10-07T06:19:52.895Z,97326.91
2022-10-07T06:24:59.075Z,97311.47
2022-10-07T06:30:01.966Z,97301.88
2022-10-07T06:35:05.923Z,97305.78
2022-10-07T06:40:08.998Z,97280.28
2022-10-07T06:45:11.312Z,97288.06
2022-10-07T06:50:15.199Z,97278.84
2022-10-07T06:55:18.270Z,97257.03
2022-10-07T07:00:20.837Z,97267.06
2022-10-07T07:05:23.899Z,97304.75
2022-10-07T07:10:26.955Z,97269.22
2022-10-07T07:15:29.511Z,97262.25
2022-10-07T07:20:37.548Z,97280.38
2022-10-07T07:25:44.447Z,97280.16
2022-10-07T07:30:49.156Z,97269.16
2022-10-07T07:35:51.550Z,97285.47
2022-10-07T07:40:53.747Z,97281.91
2022-10-07T07:45:59.210Z,97277.31
2022-10-07T07:51:01.928Z,97287.44
2022-10-07T07:56:04.433Z,97292.31
2022-10-07T08:01:14.090Z,97307.78
2022-10-07T08:06:21.556Z,97272.72
2022-10-07T08:11:24.732Z,97304.13
2022-10-07T08:16:29.069Z,97261.91
2022-10-07T08:21:33.400Z,97247.47
2022-10-07T08:26:38.315Z,97275.97
2022-10-07T08:31:43.390Z,97255.59
2022-10-07T08:36:47.671Z,97266.63
2022-10-07T08:41:53.453Z,97221.63
2022-10-07T08:47:15.766Z,97233.75
2022-10-07T08:52:44.631Z,97264.56
2022-10-07T08:58:12.022Z,97245.78
2022-10-07T09:03:36.132Z,97268.97
2022-10-07T09:08:43.893Z,97220.59
2022-10-07T09:14:02.073Z,97247.13
2022-10-07T09:19:06.420Z,97205.97
2022-10-07T09:24:28.500Z,97236.69
2022-10-07T09:29:31.085Z,97230.31
2022-10-07T09:34:33.252Z,97210.25
2022-10-07T09:39:35.441Z,97205.22
2022-10-07T09:44:40.397Z,97215.44
2022-10-07T09:49:45.501Z,97196.88
2022-10-07T09:54:54.134Z,97197.38
2022-10-07T10:00:22.045Z,97197.47
2022-10-07T10:05:28.258Z,97157.31
2022-10-07T10:10:34.052Z,97184.59
2022-10-07T10:15:36.645Z,97191.81
2022-10-07T10:20:43.681Z,97141.59
2022-10-07T10:26:17.602Z,97166.53
2022-10-07T10:31:33.865Z,97131.13
2022-10-07T10:36:43.387Z,97167.22
2022-10-07T10:41:58.305Z,97140.53
2022-10-07T10:47:24.334Z,97144.88
2022-10-07T10:52:32.665Z,97150.34
2022-10-07T10:57:44.631Z,97132.22
2022-10-07T11:03:19.878Z,97117.81
2022-10-07T11:08:27.753Z,97118.66
2022-10-07T11:13:41.263Z,97132.66
2022-10-07T11:18:47.163Z,97113.56
2022-10-07T11:23:56.399Z,97133.78
2022-10-07T11:29:04.435Z,97114.59
2022-10-07T11:34:14.033Z,97080.81
2022-10-07T11:39:16.420Z,97119.34
2022-10-07T11:44:28.958Z,97120.75
2022-10-07T11:49:58.374Z,97100.44
2022-10-07T11:55:08.273Z,97090.66
2022-10-07T12:00:30.646Z,97111.03
2022-10-07T12:05:36.189Z,97115.31
2022-10-07T12:10:38.378Z,97091.66
2022-10-07T12:15:42.747Z,97060.75
2022-10-07T12:20:52.776Z,97084.38
2022-10-07T12:26:00.688Z,97094.06
2022-10-07T12:31:15.434Z,97077.34
2022-10-07T12:36:26.615Z,97078.34
2022-10-07T12:41:48.790Z,97073.47
2022-10-07T12:47:13.761Z,97072.44
2022-10-07T12:52:40.731Z,97028.31
2022-10-07T12:57:51.198Z,97069.28
2022-10-07T13:03:22.404Z,97058.97
2022-10-07T13:08:42.117Z,97063.50
2022-10-07T13:14:07.500Z,97063.38
2022-10-07T13:19:15.735Z,97059.03
2022-10-07T13:24:24.320Z,97024.59
2022-10-07T13:29:31.215Z,97029.91
2022-10-07T13:34:34.599Z,97004.63
2022-10-07T13:39:36.975Z,97003.81
2022-10-07T13:44:43.942Z,97012.56
2022-10-07T13:49:49.906Z,97026.31
2022-10-07T13:54:53.109Z,96998.34
2022-10-07T13:59:55.438Z,97010.44
2022-10-07T14:05:05.211Z,97045.50
2022-10-07T14:10:10.285Z,97045.25
2022-10-07T14:15:17.518Z,97042.56
2022-10-07T14:20:32.473Z,97036.59
2022-10-07T14:25:53.353Z,97024.06
2022-10-07T14:31:26.353Z,97043.41
2022-10-07T14:36:28.916Z,97011.06
2022-10-07T14:41:32.519Z,97012.75
2022-10-07T14:46:34.761Z,97012.63
2022-10-07T14:51:37.266Z,97007.88
2022-10-07T14:56:39.590Z,97044.22
2022-10-07T15:01:41.721Z,97010.38
2022-10-07T15:06:50.060Z,96998.22
2022-10-07T15:11:59.311Z,97003.22
2022-10-07T15:17:01.815Z,96990.22
2022-10-07T15:22:06.202Z,97043.19
2022-10-07T15:27:10.088Z,97023.03
2022-10-07T15:32:12.326Z,97006.91
2022-10-07T15:37:15.176Z,97042.03
2022-10-07T15:42:18.745Z,97029.41
2022-10-07T15:47:21.189Z,97035.69
2022-10-07T15:52:23.471Z,97022.66
2022-10-07T15:57:27.313Z,97048.66
2022-10-07T16:02:29.760Z,97048.09
2022-10-07T16:07:31.995Z,97039.19
2022-10-07T16:12:34.070Z,97073.44
2022-10-07T16:17:36.378Z,97044.97
2022-10-07T16:22:38.639Z,97046.66
2022-10-07T16:27:59.459Z,97071.50
2022-10-07T16:33:01.656Z,97097.72
2022-10-07T16:38:05.543Z,97080.53
2022-10-07T16:43:07.946Z,97075.31
2022-10-07T16:48:10.826Z,97093.94
2022-10-07T16:53:13.201Z,97075.69
2022-10-07T16:58:15.481Z,97079.59
2022-10-07T17:03:17.636Z,97074.31
2022-10-07T17:08:20.595Z,97080.03
2022-10-07T17:13:22.903Z,97083.66
2022-10-07T17:18:26.946Z,97097.13
2022-10-07T17:23:33.281Z,97094.41
2022-10-07T17:28:37.353Z,97078.50
2022-10-07T17:33:41.879Z,97072.94
2022-10-07T17:38:45.245Z,97110.94
2022-10-07T17:43:48.418Z,97107.13
2022-10-07T17:48:53.138Z,97071.72
2022-10-07T17:53:57.233Z,97115.97
2022-10-07T17:58:59.895Z,97101.25
2022-10-07T18:04:04.928Z,97082.38
2022-10-07T18:09:09.389Z,97117.78
2022-10-07T18:14:30.538Z,97116.50
2022-10-07T18:19:33.198Z,97085.28
2022-10-07T18:24:35.459Z,97107.22
2022-10-07T18:29:39.107Z,97113.88
2022-10-07T18:34:41.181Z,97080.66
2022-10-07T18:39:43.439Z,97098.78
2022-10-07T18:44:45.561Z,97086.34
2022-10-07T18:49:47.640Z,97099.50
2022-10-07T18:54:49.989Z,97107.16
2022-10-07T18:59:52.172Z,97097.34
2022-10-07T19:04:54.370Z,97089.78
2022-10-07T19:09:56.908Z,97064.22
2022-10-07T19:14:59.558Z,97119.34
2022-10-07T19:20:01.742Z,97085.38
2022-10-07T19:25:23.069Z,97110.13
2022-10-07T19:30:25.473Z,97117.81
2022-10-07T19:35:33.263Z,97092.53
2022-10-07T19:40:40.450Z,97085.38
2022-10-07T19:45:43.890Z,97085.81
2022-10-07T19:50:46.659Z,97095.25
2022-10-07T19:55:48.751Z,97090.25
2022-10-07T20:00:52.130Z,97091.53
2022-10-07T20:05:54.235Z,97121.97
2022-10-07T20:10:58.066Z,97108.19
2022-10-07T20:16:24.567Z,97121.03
2022-10-07T20:21:27.323Z,97102.72
2022-10-07T20:26:32.394Z,97104.16
2022-10-07T20:31:36.996Z,97116.94
2022-10-07T20:36:41.503Z,97074.59
2022-10-07T20:42:02.188Z,97066.34
2022-10-07T20:47:06.614Z,97085.84
2022-10-07T20:52:13.381Z,97101.41
2022-10-07T20:57:18.996Z,97083.38
2022-10-07T21:02:23.537Z,97063.31
2022-10-07T21:07:34.743Z,97057.44
2022-10-07T21:12:36.859Z,97045.75
2022-10-07T21:17:40.889Z,97077.84
2022-10-07T21:22:43.358Z,97049.00
2022-10-07T21:27:45.865Z,97061.53
2022-10-07T21:32:50.221Z,97027.91
2022-10-07T21:37:52.815Z,97064.22
2022-10-07T21:42:55.048Z,97045.25
2022-10-07T21:47:59.314Z,97056.47
2022-10-07T21:53:01.476Z,97073.28
2022-10-07T21:58:03.658Z,97050.09
2022-10-07T22:03:06.119Z,97056.84
2022-10-07T22:08:31.732Z,97032.78
2022-10-07T22:13:36.737Z,97038.50
2022-10-07T22:18:39.053Z,97043.50
2022-10-07T22:23:42.349Z,97023.47
2022-10-07T22:28:46.720Z,97042.88
2022-10-07T22:34:00.475Z,97015.41
2022-10-07T22:39:03.102Z,97050.88
2022-10-07T22:44:05.224Z,96978.94
2022-10-07T22:49:07.321Z,97019.22
2022-10-07T22:54:13.093Z,97050.91
2022-10-07T22:59:15.548Z,97011.25
2022-10-07T23:04:19.758Z,97013.06
2022-10-07T23:09:22.066Z,97021.13
2022-10-07T23:14:24.158Z,97013.25
2022-10-07T23:19:26.341Z,97031.81
2022-10-07T23:24:28.604Z,97027.78
2022-10-07T23:29:32.868Z,97008.72
2022-10-07T23:34:35.112Z,97026.72
2022-10-07T23:39:37.463Z,97002.25
2022-10-07T23:44:39.732Z,96996.13
2022-10-07T23:49:42.101Z,97016.94
2022-10-07T23:54:44.228Z,96992.91
2022-10-07T23:59:46.307Z,96976.50
